sensor_id;sensor_type;location;lat;lon;timestamp;pressure;altitude;pressure_sealevel;temperature;humidity
58072;BME280;60383;46.626;18.866;2023-07-20T00:01:47;99761.63;;;22.60;75.59
58072;BME280;60383;46.626;18.866;2023-07-20T00:04:14;99756.53;;;23.08;76.10
58072;BME280;60383;46.626;18.866;2023-07-20T00:06:40;99761.34;;;23.12;75.19
58072;BME280;60383;46.626;18.866;2023-07-20T00:09:08;99757.56;;;23.02;74.86
58072;BME280;60383;46.626;18.866;2023-07-20T00:11:36;99763.81;;;22.92;74.22
58072;BME280;60383;46.626;18.866;2023-07-20T00:14:04;99760.72;;;22.54;75.67
58072;BME280;60383;46.626;18.866;2023-07-20T00:16:29;99766.78;;;22.68;74.55
58072;BME280;60383;46.626;18.866;2023-07-20T00:18:55;99764.34;;;22.72;73.49
58072;BME280;60383;46.626;18.866;2023-07-20T00:21:20;99765.09;;;22.84;71.25
58072;BME280;60383;46.626;18.866;2023-07-20T00:23:46;99765.69;;;22.69;72.09
58072;BME280;60383;46.626;18.866;2023-07-20T00:26:11;99752.50;;;22.64;71.01
58072;BME280;60383;46.626;18.866;2023-07-20T00:28:37;99753.44;;;22.53;71.13
58072;BME280;60383;46.626;18.866;2023-07-20T00:31:03;99753.03;;;22.61;70.25
58072;BME280;60383;46.626;18.866;2023-07-20T00:33:29;99752.69;;;22.58;70.06
58072;BME280;60383;46.626;18.866;2023-07-20T00:35:54;99755.28;;;22.47;71.00
58072;BME280;60383;46.626;18.866;2023-07-20T00:38:20;99753.44;;;22.53;70.67
58072;BME280;60383;46.626;18.866;2023-07-20T00:40:46;99752.84;;;22.51;70.54
58072;BME280;60383;46.626;18.866;2023-07-20T00:43:11;99749.97;;;22.46;71.02
58072;BME280;60383;46.626;18.866;2023-07-20T00:45:38;99740.50;;;22.47;70.95
58072;BME280;60383;46.626;18.866;2023-07-20T00:48:04;99742.31;;;22.24;71.84
58072;BME280;60383;46.626;18.866;2023-07-20T00:50:31;99735.63;;;22.25;72.97
58072;BME280;60383;46.626;18.866;2023-07-20T00:52:58;99735.22;;;22.33;72.70
58072;BME280;60383;46.626;18.866;2023-07-20T00:55:24;99732.53;;;22.39;71.58
58072;BME280;60383;46.626;18.866;2023-07-20T00:57:50;99723.88;;;22.23;72.25
58072;BME280;60383;46.626;18.866;2023-07-20T01:00:16;99716.56;;;22.05;72.92
58072;BME280;60383;46.626;18.866;2023-07-20T01:02:42;99723.41;;;21.97;73.39
58072;BME280;60383;46.626;18.866;2023-07-20T01:05:08;99709.22;;;21.99;73.13
58072;BME280;60383;46.626;18.866;2023-07-20T01:07:37;99721.06;;;22.06;73.08
58072;BME280;60383;46.626;18.866;2023-07-20T01:12:41;99727.88;;;22.27;72.49
58072;BME280;60383;46.626;18.866;2023-07-20T01:15:08;99721.31;;;22.05;73.13
58072;BME280;60383;46.626;18.866;2023-07-20T01:17:34;99719.41;;;21.93;73.64
58072;BME280;60383;46.626;18.866;2023-07-20T01:19:59;99723.16;;;21.70;74.38
58072;BME280;60383;46.626;18.866;2023-07-20T01:31:21;99724.56;;;21.84;75.02
58072;BME280;60383;46.626;18.866;2023-07-20T01:33:50;99714.00;;;21.86;75.26
58072;BME280;60383;46.626;18.866;2023-07-20T01:36:17;99727.50;;;21.78;75.32
58072;BME280;60383;46.626;18.866;2023-07-20T01:38:44;99724.66;;;21.61;75.76
58072;BME280;60383;46.626;18.866;2023-07-20T01:41:10;99730.19;;;21.20;78.02
58072;BME280;60383;46.626;18.866;2023-07-20T01:43:36;99740.13;;;21.16;78.42
58072;BME280;60383;46.626;18.866;2023-07-20T01:46:02;99743.63;;;21.23;77.91
58072;BME280;60383;46.626;18.866;2023-07-20T01:48:28;99738.00;;;21.47;77.31
58072;BME280;60383;46.626;18.866;2023-07-20T01:50:53;99734.47;;;21.63;76.60
58072;BME280;60383;46.626;18.866;2023-07-20T01:53:20;99742.78;;;21.75;76.06
58072;BME280;60383;46.626;18.866;2023-07-20T01:55:46;99753.38;;;21.61;76.31
58072;BME280;60383;46.626;18.866;2023-07-20T01:58:11;99763.66;;;21.73;76.28
58072;BME280;60383;46.626;18.866;2023-07-20T02:00:37;99765.59;;;21.60;76.39
58072;BME280;60383;46.626;18.866;2023-07-20T02:03:03;99769.94;;;21.56;77.08
58072;BME280;60383;46.626;18.866;2023-07-20T02:05:29;99781.56;;;21.65;76.80
58072;BME280;60383;46.626;18.866;2023-07-20T02:07:54;99773.47;;;21.63;76.70
58072;BME280;60383;46.626;18.866;2023-07-20T02:10:20;99769.25;;;21.49;77.53
58072;BME280;60383;46.626;18.866;2023-07-20T02:12:45;99774.09;;;21.42;77.65
58072;BME280;60383;46.626;18.866;2023-07-20T02:15:11;99768.66;;;21.35;78.12
58072;BME280;60383;46.626;18.866;2023-07-20T02:17:38;99765.19;;;21.16;78.77
58072;BME280;60383;46.626;18.866;2023-07-20T02:20:07;99773.06;;;21.07;79.26
58072;BME280;60383;46.626;18.866;2023-07-20T02:22:34;99790.09;;;21.22;78.89
58072;BME280;60383;46.626;18.866;2023-07-20T02:24:59;99783.34;;;21.06;79.56
58072;BME280;60383;46.626;18.866;2023-07-20T02:27:25;99774.84;;;21.25;78.93
58072;BME280;60383;46.626;18.866;2023-07-20T02:29:50;99782.25;;;21.31;78.99
58072;BME280;60383;46.626;18.866;2023-07-20T02:32:16;99772.06;;;21.25;78.82
58072;BME280;60383;46.626;18.866;2023-07-20T02:34:41;99783.53;;;21.29;78.78
58072;BME280;60383;46.626;18.866;2023-07-20T02:37:07;99777.75;;;21.30;78.90
58072;BME280;60383;46.626;18.866;2023-07-20T02:39:33;99778.47;;;21.26;78.76
58072;BME280;60383;46.626;18.866;2023-07-20T02:41:58;99785.03;;;21.19;78.52
58072;BME280;60383;46.626;18.866;2023-07-20T02:44:24;99790.59;;;21.31;78.35
58072;BME280;60383;46.626;18.866;2023-07-20T02:46:49;99786.22;;;21.35;78.50
58072;BME280;60383;46.626;18.866;2023-07-20T02:49:15;99785.22;;;21.53;77.43
58072;BME280;60383;46.626;18.866;2023-07-20T02:51:41;99783.00;;;21.55;77.47
58072;BME280;60383;46.626;18.866;2023-07-20T02:54:07;99780.88;;;21.58;77.30
58072;BME280;60383;46.626;18.866;2023-07-20T02:56:33;99781.22;;;21.61;77.21
58072;BME280;60383;46.626;18.866;2023-07-20T02:59:01;99794.06;;;21.62;77.10
58072;BME280;60383;46.626;18.866;2023-07-20T03:01:26;99784.97;;;21.67;76.84
58072;BME280;60383;46.626;18.866;2023-07-20T03:03:54;99783.69;;;21.86;76.22
58072;BME280;60383;46.626;18.866;2023-07-20T03:06:20;99788.09;;;21.82;75.96
58072;BME280;60383;46.626;18.866;2023-07-20T03:08:45;99786.56;;;21.92;76.20
58072;BME280;60383;46.626;18.866;2023-07-20T03:11:16;99789.09;;;21.93;75.93
58072;BME280;60383;46.626;18.866;2023-07-20T03:13:42;99789.66;;;21.78;76.57
58072;BME280;60383;46.626;18.866;2023-07-20T03:16:08;99786.53;;;21.63;77.24
58072;BME280;60383;46.626;18.866;2023-07-20T03:18:37;99780.09;;;21.74;76.78
58072;BME280;60383;46.626;18.866;2023-07-20T03:21:04;99796.63;;;21.52;77.46
58072;BME280;60383;46.626;18.866;2023-07-20T03:23:29;99792.72;;;21.53;77.57
58072;BME280;60383;46.626;18.866;2023-07-20T03:25:55;99795.91;;;21.45;77.98
58072;BME280;60383;46.626;18.866;2023-07-20T03:28:20;99795.41;;;21.48;78.30
58072;BME280;60383;46.626;18.866;2023-07-20T03:30:45;99803.84;;;21.53;77.73
58072;BME280;60383;46.626;18.866;2023-07-20T03:33:11;99806.88;;;21.51;77.68
58072;BME280;60383;46.626;18.866;2023-07-20T03:35:37;99807.78;;;21.28;77.97
58072;BME280;60383;46.626;18.866;2023-07-20T03:38:02;99813.09;;;21.30;78.52
58072;BME280;60383;46.626;18.866;2023-07-20T03:40:29;99815.03;;;21.29;78.65
58072;BME280;60383;46.626;18.866;2023-07-20T03:42:55;99823.00;;;21.49;77.75
58072;BME280;60383;46.626;18.866;2023-07-20T03:45:20;99818.28;;;21.50;77.64
58072;BME280;60383;46.626;18.866;2023-07-20T03:47:49;99823.88;;;21.38;78.54
58072;BME280;60383;46.626;18.866;2023-07-20T03:50:14;99823.25;;;21.36;78.44
58072;BME280;60383;46.626;18.866;2023-07-20T03:52:40;99821.91;;;21.50;77.38
58072;BME280;60383;46.626;18.866;2023-07-20T03:55:06;99828.84;;;21.60;77.58
58072;BME280;60383;46.626;18.866;2023-07-20T03:57:31;99836.94;;;21.61;77.60
58072;BME280;60383;46.626;18.866;2023-07-20T03:59:59;99835.81;;;21.86;76.88
58072;BME280;60383;46.626;18.866;2023-07-20T04:02:24;99834.59;;;21.82;76.46
58072;BME280;60383;46.626;18.866;2023-07-20T04:04:50;99834.69;;;21.87;76.65
58072;BME280;60383;46.626;18.866;2023-07-20T04:07:16;99827.25;;;22.05;75.98
58072;BME280;60383;46.626;18.866;2023-07-20T04:09:41;99827.75;;;21.61;77.59
58072;BME280;60383;46.626;18.866;2023-07-20T04:12:07;99834.94;;;21.85;76.82
58072;BME280;60383;46.626;18.866;2023-07-20T04:14:33;99838.00;;;21.72;77.46
58072;BME280;60383;46.626;18.866;2023-07-20T04:16:58;99834.19;;;22.02;76.26
58072;BME280;60383;46.626;18.866;2023-07-20T04:19:25;99828.91;;;21.89;76.45
58072;BME280;60383;46.626;18.866;2023-07-20T04:21:51;99838.44;;;21.93;76.30
58072;BME280;60383;46.626;18.866;2023-07-20T04:24:16;99835.75;;;21.69;77.79
58072;BME280;60383;46.626;18.866;2023-07-20T04:26:42;99834.47;;;21.89;77.80
58072;BME280;60383;46.626;18.866;2023-07-20T04:29:07;99843.69;;;21.77;78.10
58072;BME280;60383;46.626;18.866;2023-07-20T04:31:33;99851.75;;;21.62;78.72
58072;BME280;60383;46.626;18.866;2023-07-20T04:33:59;99855.13;;;21.52;79.47
58072;BME280;60383;46.626;18.866;2023-07-20T04:36:25;99860.53;;;21.47;79.99
58072;BME280;60383;46.626;18.866;2023-07-20T04:38:50;99853.41;;;21.51;80.02
58072;BME280;60383;46.626;18.866;2023-07-20T04:41:15;99849.03;;;21.55;79.45
58072;BME280;60383;46.626;18.866;2023-07-20T04:43:44;99851.59;;;21.57;79.44
58072;BME280;60383;46.626;18.866;2023-07-20T04:46:13;99845.91;;;21.75;78.72
58072;BME280;60383;46.626;18.866;2023-07-20T04:48:38;99850.72;;;21.80;78.43
58072;BME280;60383;46.626;18.866;2023-07-20T04:51:05;99857.13;;;21.92;77.98
58072;BME280;60383;46.626;18.866;2023-07-20T04:53:31;99856.88;;;21.82;78.15
58072;BME280;60383;46.626;18.866;2023-07-20T04:55:56;99850.13;;;21.78;78.68
58072;BME280;60383;46.626;18.866;2023-07-20T04:58:22;99853.63;;;21.85;78.53
58072;BME280;60383;46.626;18.866;2023-07-20T05:00:49;99849.88;;;21.79;78.99
58072;BME280;60383;46.626;18.866;2023-07-20T05:03:14;99856.00;;;21.93;79.15
58072;BME280;60383;46.626;18.866;2023-07-20T05:05:40;99847.06;;;21.91;79.07
58072;BME280;60383;46.626;18.866;2023-07-20T05:08:05;99848.53;;;22.23;77.41
58072;BME280;60383;46.626;18.866;2023-07-20T05:10:31;99856.16;;;22.27;77.57
58072;BME280;60383;46.626;18.866;2023-07-20T05:12:58;99849.31;;;22.35;77.13
58072;BME280;60383;46.626;18.866;2023-07-20T05:15:23;99853.59;;;22.26;77.24
58072;BME280;60383;46.626;18.866;2023-07-20T05:17:49;99852.84;;;22.30;77.26
58072;BME280;60383;46.626;18.866;2023-07-20T05:20:14;99854.19;;;22.28;77.63
58072;BME280;60383;46.626;18.866;2023-07-20T05:22:40;99858.00;;;22.51;77.18
58072;BME280;60383;46.626;18.866;2023-07-20T05:25:10;99863.69;;;22.56;76.60
58072;BME280;60383;46.626;18.866;2023-07-20T05:27:37;99854.78;;;22.59;76.94
58072;BME280;60383;46.626;18.866;2023-07-20T05:30:03;99864.53;;;22.73;75.98
58072;BME280;60383;46.626;18.866;2023-07-20T05:32:29;99864.75;;;22.84;75.65
58072;BME280;60383;46.626;18.866;2023-07-20T05:34:55;99857.88;;;22.74;76.16
58072;BME280;60383;46.626;18.866;2023-07-20T05:37:21;99854.06;;;22.80;75.94
58072;BME280;60383;46.626;18.866;2023-07-20T05:39:46;99863.78;;;22.78;75.97
58072;BME280;60383;46.626;18.866;2023-07-20T05:42:12;99854.19;;;22.86;75.28
58072;BME280;60383;46.626;18.866;2023-07-20T05:44:37;99863.47;;;22.91;75.12
58072;BME280;60383;46.626;18.866;2023-07-20T05:47:03;99867.00;;;23.04;74.80
58072;BME280;60383;46.626;18.866;2023-07-20T05:49:29;99869.31;;;23.07;74.23
58072;BME280;60383;46.626;18.866;2023-07-20T05:51:56;99879.19;;;23.14;74.06
58072;BME280;60383;46.626;18.866;2023-07-20T05:54:24;99881.34;;;23.24;74.06
58072;BME280;60383;46.626;18.866;2023-07-20T05:56:49;99875.69;;;23.19;74.43
58072;BME280;60383;46.626;18.866;2023-07-20T05:59:15;99875.00;;;23.29;74.15
58072;BME280;60383;46.626;18.866;2023-07-20T06:01:41;99873.81;;;23.25;73.82
58072;BME280;60383;46.626;18.866;2023-07-20T06:04:07;99877.09;;;23.39;73.16
58072;BME280;60383;46.626;18.866;2023-07-20T06:06:32;99879.22;;;23.32;73.46
58072;BME280;60383;46.626;18.866;2023-07-20T06:09:00;99880.66;;;23.34;73.22
58072;BME280;60383;46.626;18.866;2023-07-20T06:11:29;99882.00;;;23.49;72.95
58072;BME280;60383;46.626;18.866;2023-07-20T06:13:56;99878.75;;;23.57;72.42
58072;BME280;60383;46.626;18.866;2023-07-20T06:16:21;99880.09;;;23.71;72.18
58072;BME280;60383;46.626;18.866;2023-07-20T06:18:46;99890.28;;;23.83;71.22
58072;BME280;60383;46.626;18.866;2023-07-20T06:21:12;99896.75;;;23.83;71.55
58072;BME280;60383;46.626;18.866;2023-07-20T06:23:38;99887.53;;;23.66;72.23
58072;BME280;60383;46.626;18.866;2023-07-20T06:26:06;99907.09;;;23.66;72.27
58072;BME280;60383;46.626;18.866;2023-07-20T06:28:33;99898.69;;;23.83;71.64
58072;BME280;60383;46.626;18.866;2023-07-20T06:31:04;99899.19;;;23.97;71.73
58072;BME280;60383;46.626;18.866;2023-07-20T06:33:30;99905.38;;;23.99;71.25
58072;BME280;60383;46.626;18.866;2023-07-20T06:35:55;99911.69;;;24.11;71.00
58072;BME280;60383;46.626;18.866;2023-07-20T06:38:22;99908.28;;;24.31;70.56
58072;BME280;60383;46.626;18.866;2023-07-20T06:40:49;99908.63;;;24.62;69.32
58072;BME280;60383;46.626;18.866;2023-07-20T06:43:16;99901.97;;;24.96;68.31
58072;BME280;60383;46.626;18.866;2023-07-20T06:45:41;99904.13;;;25.16;65.98
58072;BME280;60383;46.626;18.866;2023-07-20T06:48:07;99898.09;;;25.34;65.36
58072;BME280;60383;46.626;18.866;2023-07-20T06:50:32;99896.56;;;25.49;64.76
58072;BME280;60383;46.626;18.866;2023-07-20T06:52:59;99906.38;;;25.51;66.09
58072;BME280;60383;46.626;18.866;2023-07-20T06:55:25;99903.63;;;25.57;65.96
58072;BME280;60383;46.626;18.866;2023-07-20T06:57:51;99902.78;;;25.61;63.92
58072;BME280;60383;46.626;18.866;2023-07-20T07:00:17;99909.28;;;25.67;63.08
58072;BME280;60383;46.626;18.866;2023-07-20T07:02:43;99909.38;;;25.77;62.56
58072;BME280;60383;46.626;18.866;2023-07-20T07:05:08;99904.69;;;25.93;62.07
58072;BME280;60383;46.626;18.866;2023-07-20T07:07:34;99908.75;;;26.18;60.47
58072;BME280;60383;46.626;18.866;2023-07-20T07:10:00;99916.34;;;26.18;58.76
58072;BME280;60383;46.626;18.866;2023-07-20T07:12:25;99910.16;;;26.21;58.21
58072;BME280;60383;46.626;18.866;2023-07-20T07:14:51;99914.34;;;26.13;59.46
58072;BME280;60383;46.626;18.866;2023-07-20T07:17:16;99917.78;;;26.30;59.05
58072;BME280;60383;46.626;18.866;2023-07-20T07:19:41;99917.28;;;26.49;57.98
58072;BME280;60383;46.626;18.866;2023-07-20T07:22:07;99905.50;;;26.52;56.32
58072;BME280;60383;46.626;18.866;2023-07-20T07:24:33;99920.94;;;26.55;56.26
58072;BME280;60383;46.626;18.866;2023-07-20T07:27:01;99923.28;;;26.78;56.07
58072;BME280;60383;46.626;18.866;2023-07-20T07:29:27;99916.00;;;27.08;54.58
58072;BME280;60383;46.626;18.866;2023-07-20T07:31:53;99917.97;;;27.34;52.48
58072;BME280;60383;46.626;18.866;2023-07-20T07:34:18;99916.28;;;27.07;50.73
58072;BME280;60383;46.626;18.866;2023-07-20T07:36:44;99922.19;;;27.26;49.77
58072;BME280;60383;46.626;18.866;2023-07-20T07:39:10;99922.19;;;27.31;50.32
58072;BME280;60383;46.626;18.866;2023-07-20T07:41:35;99927.28;;;27.55;50.18
58072;BME280;60383;46.626;18.866;2023-07-20T07:44:01;99924.13;;;27.82;48.84
58072;BME280;60383;46.626;18.866;2023-07-20T07:46:26;99933.94;;;27.85;49.48
58072;BME280;60383;46.626;18.866;2023-07-20T07:48:52;99932.78;;;28.01;49.25
58072;BME280;60383;46.626;18.866;2023-07-20T07:51:18;99929.13;;;28.11;48.77
58072;BME280;60383;46.626;18.866;2023-07-20T07:53:46;99928.22;;;28.31;49.34
58072;BME280;60383;46.626;18.866;2023-07-20T07:56:11;99930.41;;;28.45;49.75
58072;BME280;60383;46.626;18.866;2023-07-20T07:58:37;99924.66;;;28.65;48.67
58072;BME280;60383;46.626;18.866;2023-07-20T08:01:03;99928.59;;;28.64;49.29
58072;BME280;60383;46.626;18.866;2023-07-20T08:03:29;99933.19;;;28.50;48.90
58072;BME280;60383;46.626;18.866;2023-07-20T08:05:55;99925.31;;;28.52;49.58
58072;BME280;60383;46.626;18.866;2023-07-20T08:08:21;99924.34;;;28.67;49.49
58072;BME280;60383;46.626;18.866;2023-07-20T08:10:46;99930.56;;;28.64;50.71
58072;BME280;60383;46.626;18.866;2023-07-20T08:13:12;99927.84;;;28.48;48.91
58072;BME280;60383;46.626;18.866;2023-07-20T08:15:38;99930.53;;;28.14;50.21
58072;BME280;60383;46.626;18.866;2023-07-20T08:18:03;99928.84;;;28.13;50.02
58072;BME280;60383;46.626;18.866;2023-07-20T08:20:29;99932.78;;;28.07;50.52
58072;BME280;60383;46.626;18.866;2023-07-20T08:22:55;99933.63;;;28.02;49.12
58072;BME280;60383;46.626;18.866;2023-07-20T08:25:21;99936.75;;;28.11;49.63
58072;BME280;60383;46.626;18.866;2023-07-20T08:27:47;99938.16;;;27.98;48.83
58072;BME280;60383;46.626;18.866;2023-07-20T08:30:13;99945.19;;;27.95;49.94
58072;BME280;60383;46.626;18.866;2023-07-20T08:32:38;99944.97;;;27.66;49.09
58072;BME280;60383;46.626;18.866;2023-07-20T08:35:05;99948.31;;;27.78;47.59
58072;BME280;60383;46.626;18.866;2023-07-20T08:37:31;99945.25;;;27.74;47.73
58072;BME280;60383;46.626;18.866;2023-07-20T08:39:56;99940.72;;;27.73;46.09
58072;BME280;60383;46.626;18.866;2023-07-20T08:42:22;99953.38;;;27.86;44.57
58072;BME280;60383;46.626;18.866;2023-07-20T08:44:48;99954.25;;;27.77;44.87
58072;BME280;60383;46.626;18.866;2023-07-20T08:47:16;99939.03;;;27.83;44.24
58072;BME280;60383;46.626;18.866;2023-07-20T08:49:41;99955.31;;;27.96;43.84
58072;BME280;60383;46.626;18.866;2023-07-20T08:52:08;99942.91;;;28.02;42.66
58072;BME280;60383;46.626;18.866;2023-07-20T08:54:34;99945.47;;;27.99;43.15
58072;BME280;60383;46.626;18.866;2023-07-20T08:57:05;99953.47;;;28.47;42.56
58072;BME280;60383;46.626;18.866;2023-07-20T08:59:31;99942.25;;;28.97;42.66
58072;BME280;60383;46.626;18.866;2023-07-20T09:01:58;99946.16;;;29.41;40.73
58072;BME280;60383;46.626;18.866;2023-07-20T09:04:24;99942.84;;;29.92;40.01
58072;BME280;60383;46.626;18.866;2023-07-20T09:06:50;99944.22;;;30.19;39.96
58072;BME280;60383;46.626;18.866;2023-07-20T09:09:16;99942.44;;;30.28;38.81
58072;BME280;60383;46.626;18.866;2023-07-20T09:11:41;99941.41;;;30.19;38.02
58072;BME280;60383;46.626;18.866;2023-07-20T09:14:08;99947.97;;;29.85;37.75
58072;BME280;60383;46.626;18.866;2023-07-20T09:16:51;99943.47;;;29.84;37.60
58072;BME280;60383;46.626;18.866;2023-07-20T09:19:17;99941.94;;;29.97;37.89
58072;BME280;60383;46.626;18.866;2023-07-20T09:21:48;99934.72;;;29.86;38.16
58072;BME280;60383;46.626;18.866;2023-07-20T09:24:14;99945.69;;;30.17;37.50
58072;BME280;60383;46.626;18.866;2023-07-20T09:26:44;99935.34;;;30.55;36.09
58072;BME280;60383;46.626;18.866;2023-07-20T09:29:10;99934.50;;;30.93;35.52
58072;BME280;60383;46.626;18.866;2023-07-20T09:31:36;99942.53;;;31.05;34.70
58072;BME280;60383;46.626;18.866;2023-07-20T09:34:02;99935.66;;;31.30;35.81
58072;BME280;60383;46.626;18.866;2023-07-20T09:36:29;99934.50;;;31.64;35.42
58072;BME280;60383;46.626;18.866;2023-07-20T09:38:54;99942.91;;;31.83;34.59
58072;BME280;60383;46.626;18.866;2023-07-20T09:41:21;99939.59;;;31.62;35.44
58072;BME280;60383;46.626;18.866;2023-07-20T09:43:46;99930.47;;;31.98;34.34
58072;BME280;60383;46.626;18.866;2023-07-20T09:46:12;99936.31;;;31.88;35.21
58072;BME280;60383;46.626;18.866;2023-07-20T09:48:38;99941.81;;;31.98;34.33
58072;BME280;60383;46.626;18.866;2023-07-20T09:51:05;99935.38;;;32.07;35.41
58072;BME280;60383;46.626;18.866;2023-07-20T09:53:32;99929.19;;;32.18;34.08
58072;BME280;60383;46.626;18.866;2023-07-20T09:55:59;99933.84;;;32.42;34.77
58072;BME280;60383;46.626;18.866;2023-07-20T09:58:26;99929.41;;;32.50;33.18
58072;BME280;60383;46.626;18.866;2023-07-20T10:00:52;99926.38;;;32.46;32.79
58072;BME280;60383;46.626;18.866;2023-07-20T10:03:21;99931.22;;;32.32;32.99
58072;BME280;60383;46.626;18.866;2023-07-20T10:05:52;99928.06;;;32.33;34.17
58072;BME280;60383;46.626;18.866;2023-07-20T10:08:19;99929.34;;;32.41;33.86
58072;BME280;60383;46.626;18.866;2023-07-20T10:10:47;99940.00;;;32.58;32.84
58072;BME280;60383;46.626;18.866;2023-07-20T10:13:26;99930.19;;;32.28;33.23
58072;BME280;60383;46.626;18.866;2023-07-20T10:20:56;99929.41;;;32.64;32.36
58072;BME280;60383;46.626;18.866;2023-07-20T10:23:26;99935.63;;;32.52;32.90
58072;BME280;60383;46.626;18.866;2023-07-20T10:25:54;99933.19;;;32.59;31.70
58072;BME280;60383;46.626;18.866;2023-07-20T10:28:20;99934.88;;;32.18;33.14
58072;BME280;60383;46.626;18.866;2023-07-20T10:30:46;99939.56;;;32.65;32.80
58072;BME280;60383;46.626;18.866;2023-07-20T10:33:12;99947.13;;;32.84;31.71
58072;BME280;60383;46.626;18.866;2023-07-20T10:35:56;99938.13;;;32.54;31.51
58072;BME280;60383;46.626;18.866;2023-07-20T10:41:17;99933.94;;;32.51;32.48
58072;BME280;60383;46.626;18.866;2023-07-20T10:43:46;99928.75;;;32.81;33.26
58072;BME280;60383;46.626;18.866;2023-07-20T10:46:12;99923.75;;;33.01;32.40
58072;BME280;60383;46.626;18.866;2023-07-20T10:49:00;99917.88;;;32.97;32.59
58072;BME280;60383;46.626;18.866;2023-07-20T10:51:27;99920.78;;;33.06;32.65
58072;BME280;60383;46.626;18.866;2023-07-20T10:53:55;99919.06;;;33.19;32.37
58072;BME280;60383;46.626;18.866;2023-07-20T10:56:24;99920.69;;;33.34;31.27
58072;BME280;60383;46.626;18.866;2023-07-20T10:58:57;99924.06;;;33.36;30.93
58072;BME280;60383;46.626;18.866;2023-07-20T11:01:28;99929.75;;;33.22;30.39
58072;BME280;60383;46.626;18.866;2023-07-20T11:03:57;99925.69;;;33.14;31.75
58072;BME280;60383;46.626;18.866;2023-07-20T11:08:50;99938.78;;;33.24;30.03
58072;BME280;60383;46.626;18.866;2023-07-20T11:11:24;99918.16;;;33.09;30.77
58072;BME280;60383;46.626;18.866;2023-07-20T11:13:57;99919.13;;;33.27;30.10
58072;BME280;60383;46.626;18.866;2023-07-20T11:16:36;99926.94;;;33.44;30.20
58072;BME280;60383;46.626;18.866;2023-07-20T11:19:03;99917.19;;;33.37;30.75
58072;BME280;60383;46.626;18.866;2023-07-20T11:21:35;99915.72;;;33.39;29.70
58072;BME280;60383;46.626;18.866;2023-07-20T11:24:03;99920.94;;;33.46;30.27
58072;BME280;60383;46.626;18.866;2023-07-20T11:26:29;99919.50;;;33.57;29.59
58072;BME280;60383;46.626;18.866;2023-07-20T11:28:54;99920.53;;;33.16;29.95
58072;BME280;60383;46.626;18.866;2023-07-20T11:31:20;99915.22;;;33.37;29.21
58072;BME280;60383;46.626;18.866;2023-07-20T11:33:46;99916.41;;;33.22;29.80
58072;BME280;60383;46.626;18.866;2023-07-20T11:36:12;99924.16;;;33.31;29.44
58072;BME280;60383;46.626;18.866;2023-07-20T11:38:41;99924.28;;;33.25;29.76
58072;BME280;60383;46.626;18.866;2023-07-20T11:41:08;99924.34;;;33.34;29.58
58072;BME280;60383;46.626;18.866;2023-07-20T11:43:33;99919.00;;;33.33;29.49
58072;BME280;60383;46.626;18.866;2023-07-20T11:45:59;99919.97;;;33.51;29.30
58072;BME280;60383;46.626;18.866;2023-07-20T11:48:25;99915.50;;;33.58;29.48
58072;BME280;60383;46.626;18.866;2023-07-20T11:50:50;99922.44;;;33.43;30.26
58072;BME280;60383;46.626;18.866;2023-07-20T11:53:16;99922.75;;;33.42;28.14
58072;BME280;60383;46.626;18.866;2023-07-20T11:55:42;99918.28;;;33.50;28.63
58072;BME280;60383;46.626;18.866;2023-07-20T11:58:08;99918.84;;;33.60;28.08
58072;BME280;60383;46.626;18.866;2023-07-20T12:00:37;99916.91;;;33.70;29.17
58072;BME280;60383;46.626;18.866;2023-07-20T12:03:05;99912.84;;;33.62;30.36
58072;BME280;60383;46.626;18.866;2023-07-20T12:05:36;99918.69;;;33.34;29.52
58072;BME280;60383;46.626;18.866;2023-07-20T12:08:01;99911.34;;;33.65;29.19
58072;BME280;60383;46.626;18.866;2023-07-20T12:10:28;99912.34;;;33.60;28.88
58072;BME280;60383;46.626;18.866;2023-07-20T12:12:54;99917.09;;;33.42;28.76
58072;BME280;60383;46.626;18.866;2023-07-20T12:15:20;99919.91;;;33.42;28.63
58072;BME280;60383;46.626;18.866;2023-07-20T12:17:50;99927.72;;;33.36;29.17
58072;BME280;60383;46.626;18.866;2023-07-20T12:20:33;99917.19;;;33.37;29.04
58072;BME280;60383;46.626;18.866;2023-07-20T12:25:48;99909.69;;;33.32;27.79
58072;BME280;60383;46.626;18.866;2023-07-20T12:28:16;99905.00;;;33.59;25.52
58072;BME280;60383;46.626;18.866;2023-07-20T12:30:43;99906.38;;;33.39;26.09
58072;BME280;60383;46.626;18.866;2023-07-20T12:33:09;99903.72;;;33.42;26.48
58072;BME280;60383;46.626;18.866;2023-07-20T12:35:36;99901.56;;;33.39;25.06
58072;BME280;60383;46.626;18.866;2023-07-20T12:38:02;99901.66;;;33.34;25.80
58072;BME280;60383;46.626;18.866;2023-07-20T12:40:28;99898.00;;;33.34;26.15
58072;BME280;60383;46.626;18.866;2023-07-20T12:42:53;99890.03;;;33.22;25.33
58072;BME280;60383;46.626;18.866;2023-07-20T12:45:19;99896.38;;;33.19;26.37
58072;BME280;60383;46.626;18.866;2023-07-20T12:47:44;99886.69;;;33.20;25.36
58072;BME280;60383;46.626;18.866;2023-07-20T12:50:10;99894.75;;;33.26;25.63
58072;BME280;60383;46.626;18.866;2023-07-20T12:52:37;99899.97;;;33.10;26.05
58072;BME280;60383;46.626;18.866;2023-07-20T12:55:04;99901.66;;;33.11;24.61
58072;BME280;60383;46.626;18.866;2023-07-20T12:57:30;99892.31;;;32.88;25.25
58072;BME280;60383;46.626;18.866;2023-07-20T12:59:56;99896.22;;;33.01;25.73
58072;BME280;60383;46.626;18.866;2023-07-20T13:02:21;99891.06;;;32.80;25.90
58072;BME280;60383;46.626;18.866;2023-07-20T13:04:46;99891.66;;;32.91;26.36
58072;BME280;60383;46.626;18.866;2023-07-20T13:07:12;99891.41;;;33.02;27.11
58072;BME280;60383;46.626;18.866;2023-07-20T13:09:37;99884.81;;;32.92;27.15
58072;BME280;60383;46.626;18.866;2023-07-20T13:12:03;99888.63;;;32.88;26.87